QFA361 YPXM-YPCC
Flight info
| Callsign | QFA361 |
|---|---|
| Flight time | 1h 16m |
| Altitude | 39000 |
| Route | TATOD DCT EMVAS DCT PCCNG DCT PCCNI DCT PCCNF DCT PCCNM |
| Aircraft | A20N/M-SDE2E3FGHIRWXY/LB1 |
Departure
| Time | 2026-04-15 13:53 |
|---|---|
| Airport | Christmas Island International Airport (YPXM) |
Arrival
| Time | 2026-04-15 15:10 |
|---|---|
| Airport | Cocos (Keeling) Islands Airport (YPCC) |
| Time | Latitude | Longitude | Altitude | Speed | Heading |
|---|---|---|---|---|---|
| 2026-04-15 13:47 | -10.45090 | 105.68929 | 855 ft | 0 kts | 269° |
| 2026-04-15 13:50 | -10.45090 | 105.68942 | 838 ft | 3 kts | 269° |
| 2026-04-15 13:50 | -10.45089 | 105.68951 | 852 ft | 2 kts | 234° |
| 2026-04-15 13:51 | -10.45078 | 105.68959 | 853 ft | 0 kts | 179° |
| 2026-04-15 13:51 | -10.45082 | 105.68961 | 852 ft | 5 kts | 166° |
| 2026-04-15 13:52 | -10.45109 | 105.69057 | 854 ft | 14 kts | 96° |
| 2026-04-15 13:52 | -10.45113 | 105.69102 | 854 ft | 9 kts | 58° |
| 2026-04-15 13:52 | -10.45099 | 105.69105 | 855 ft | 0 kts | 352° |
| 2026-04-15 13:53 | -10.44770 | 105.69081 | 873 ft | 94 kts | 355° |
| 2026-04-15 13:53 | -10.43846 | 105.69007 | 1218 ft | 150 kts | 360° |
| 2026-04-15 13:53 | -10.42738 | 105.68901 | 2050 ft | 178 kts | 358° |
| 2026-04-15 13:53 | -10.41572 | 105.68234 | 2887 ft | 215 kts | 310° |
| 2026-04-15 13:54 | -10.41124 | 105.66722 | 3819 ft | 239 kts | 265° |
| 2026-04-15 13:54 | -10.41432 | 105.65014 | 4830 ft | 256 kts | 252° |
| 2026-04-15 13:54 | -10.41942 | 105.63220 | 5715 ft | 278 kts | 256° |
| 2026-04-15 13:54 | -10.42370 | 105.61256 | 6876 ft | 287 kts | 258° |
| 2026-04-15 13:55 | -10.42774 | 105.59240 | 8145 ft | 293 kts | 258° |
| 2026-04-15 13:55 | -10.43176 | 105.57210 | 9574 ft | 293 kts | 258° |
| 2026-04-15 13:55 | -10.43589 | 105.55170 | 10695 ft | 305 kts | 258° |
| 2026-04-15 13:55 | -10.44051 | 105.52950 | 11294 ft | 336 kts | 258° |
| 2026-04-15 13:56 | -10.44572 | 105.50511 | 11780 ft | 366 kts | 258° |
| 2026-04-15 13:56 | -10.45135 | 105.47911 | 12363 ft | 389 kts | 257° |
| 2026-04-15 13:56 | -10.45729 | 105.45185 | 13281 ft | 400 kts | 258° |
| 2026-04-15 13:56 | -10.46338 | 105.42400 | 14234 ft | 407 kts | 258° |
| 2026-04-15 13:57 | -10.46956 | 105.39565 | 15164 ft | 414 kts | 258° |
| 2026-04-15 13:57 | -10.47578 | 105.36714 | 16107 ft | 419 kts | 258° |
| 2026-04-15 13:57 | -10.48215 | 105.33785 | 17036 ft | 425 kts | 258° |
| 2026-04-15 13:57 | -10.48857 | 105.30835 | 17895 ft | 430 kts | 258° |
| 2026-04-15 13:58 | -10.49505 | 105.27848 | 18613 ft | 436 kts | 258° |
| 2026-04-15 13:58 | -10.50157 | 105.24845 | 19175 ft | 443 kts | 258° |
| 2026-04-15 13:58 | -10.50826 | 105.21761 | 19724 ft | 449 kts | 257° |
| 2026-04-15 13:58 | -10.51503 | 105.18637 | 20284 ft | 453 kts | 257° |
| 2026-04-15 13:59 | -10.52180 | 105.15517 | 20860 ft | 457 kts | 257° |
| 2026-04-15 13:59 | -10.52870 | 105.12332 | 21359 ft | 463 kts | 257° |
| 2026-04-15 13:59 | -10.53568 | 105.09111 | 21874 ft | 468 kts | 257° |
| 2026-04-15 13:59 | -10.54272 | 105.05859 | 22435 ft | 471 kts | 256° |
| 2026-04-15 14:00 | -10.54979 | 105.02586 | 22901 ft | 477 kts | 256° |
| 2026-04-15 14:00 | -10.55687 | 104.99313 | 23363 ft | 481 kts | 256° |
| 2026-04-15 14:00 | -10.56408 | 104.95975 | 23846 ft | 483 kts | 256° |
| 2026-04-15 14:00 | -10.57124 | 104.92657 | 24204 ft | 486 kts | 256° |
| 2026-04-15 14:01 | -10.58582 | 104.85896 | 25029 ft | 490 kts | 257° |
| 2026-04-15 14:01 | -10.59317 | 104.82485 | 25361 ft | 494 kts | 256° |
| 2026-04-15 14:01 | -10.60046 | 104.79101 | 25748 ft | 497 kts | 257° |
| 2026-04-15 14:02 | -10.60785 | 104.75667 | 26170 ft | 498 kts | 257° |
| 2026-04-15 14:02 | -10.61528 | 104.72213 | 26563 ft | 500 kts | 257° |
| 2026-04-15 14:02 | -10.62268 | 104.68767 | 27196 ft | 496 kts | 257° |
| 2026-04-15 14:02 | -10.63000 | 104.65359 | 27857 ft | 493 kts | 257° |
| 2026-04-15 14:03 | -10.63732 | 104.61950 | 28451 ft | 491 kts | 257° |
| 2026-04-15 14:03 | -10.64451 | 104.58600 | 29115 ft | 488 kts | 257° |
| 2026-04-15 14:03 | -10.65172 | 104.55238 | 29758 ft | 486 kts | 257° |
| 2026-04-15 14:03 | -10.65897 | 104.51858 | 30241 ft | 485 kts | 257° |
| 2026-04-15 14:04 | -10.66618 | 104.48496 | 30752 ft | 483 kts | 258° |
| 2026-04-15 14:04 | -10.67324 | 104.45201 | 31198 ft | 482 kts | 258° |
| 2026-04-15 14:04 | -10.68039 | 104.41859 | 31655 ft | 481 kts | 258° |
| 2026-04-15 14:04 | -10.68751 | 104.38533 | 32165 ft | 479 kts | 258° |
| 2026-04-15 14:05 | -10.69460 | 104.35220 | 32656 ft | 477 kts | 259° |
| 2026-04-15 14:05 | -10.70164 | 104.31924 | 33132 ft | 475 kts | 259° |
| 2026-04-15 14:05 | -10.70857 | 104.28683 | 33606 ft | 474 kts | 259° |
| 2026-04-15 14:05 | -10.71558 | 104.25401 | 34062 ft | 472 kts | 259° |
| 2026-04-15 14:06 | -10.72254 | 104.22143 | 34464 ft | 470 kts | 259° |
| 2026-04-15 14:06 | -10.72940 | 104.18925 | 34862 ft | 469 kts | 259° |
| 2026-04-15 14:06 | -10.73631 | 104.15686 | 35224 ft | 468 kts | 259° |
| 2026-04-15 14:06 | -10.74320 | 104.12452 | 35638 ft | 466 kts | 259° |
| 2026-04-15 14:07 | -10.75009 | 104.09218 | 36036 ft | 464 kts | 259° |
| 2026-04-15 14:07 | -10.75682 | 104.06054 | 36434 ft | 462 kts | 259° |
| 2026-04-15 14:07 | -10.76363 | 104.02856 | 36835 ft | 460 kts | 259° |
| 2026-04-15 14:07 | -10.77038 | 103.99680 | 37171 ft | 459 kts | 259° |
| 2026-04-15 14:08 | -10.77707 | 103.96529 | 37566 ft | 457 kts | 259° |
| 2026-04-15 14:08 | -10.78377 | 103.93375 | 37976 ft | 455 kts | 259° |
| 2026-04-15 14:08 | -10.79046 | 103.90225 | 38313 ft | 454 kts | 259° |
| 2026-04-15 14:08 | -10.79706 | 103.87115 | 38653 ft | 452 kts | 259° |
| 2026-04-15 14:09 | -10.80370 | 103.83983 | 38897 ft | 453 kts | 259° |
| 2026-04-15 14:09 | -10.81714 | 103.77634 | 38954 ft | 462 kts | 259° |
| 2026-04-15 14:10 | -10.83061 | 103.71269 | 38955 ft | 462 kts | 259° |
| 2026-04-15 14:10 | -10.84408 | 103.64903 | 38954 ft | 461 kts | 259° |
| 2026-04-15 14:11 | -10.85757 | 103.58521 | 38951 ft | 461 kts | 259° |
| 2026-04-15 14:11 | -10.87100 | 103.52152 | 38953 ft | 461 kts | 259° |
| 2026-04-15 14:12 | -10.88451 | 103.45745 | 38951 ft | 463 kts | 259° |
| 2026-04-15 14:12 | -10.89797 | 103.39348 | 38953 ft | 464 kts | 259° |
| 2026-04-15 14:13 | -10.91153 | 103.32902 | 38951 ft | 464 kts | 259° |
| 2026-04-15 14:13 | -10.92500 | 103.26492 | 38950 ft | 465 kts | 259° |
| 2026-04-15 14:14 | -10.93850 | 103.20059 | 38950 ft | 465 kts | 259° |
| 2026-04-15 14:14 | -10.95193 | 103.13654 | 38951 ft | 465 kts | 259° |
| 2026-04-15 14:15 | -10.96545 | 103.07201 | 38953 ft | 466 kts | 259° |
| 2026-04-15 14:15 | -10.97889 | 103.00774 | 38955 ft | 466 kts | 259° |
| 2026-04-15 14:16 | -10.99223 | 102.94294 | 38951 ft | 466 kts | 259° |
| 2026-04-15 14:16 | -11.00508 | 102.87846 | 38953 ft | 466 kts | 260° |
| 2026-04-15 14:17 | -11.01795 | 102.81350 | 38953 ft | 466 kts | 260° |
| 2026-04-15 14:17 | -11.03073 | 102.74910 | 38956 ft | 466 kts | 260° |
| 2026-04-15 14:18 | -11.04364 | 102.68414 | 38951 ft | 466 kts | 260° |
| 2026-04-15 14:18 | -11.05644 | 102.61972 | 38949 ft | 466 kts | 260° |
| 2026-04-15 14:19 | -11.06929 | 102.55495 | 38949 ft | 466 kts | 260° |
| 2026-04-15 14:19 | -11.08206 | 102.49047 | 38949 ft | 466 kts | 260° |
| 2026-04-15 14:20 | -11.09486 | 102.42579 | 38952 ft | 466 kts | 260° |
| 2026-04-15 14:20 | -11.10551 | 102.37194 | 38952 ft | 466 kts | 260° |
| 2026-04-15 14:21 | -11.12040 | 102.29652 | 38949 ft | 467 kts | 260° |
| 2026-04-15 14:21 | -11.13316 | 102.23180 | 38949 ft | 467 kts | 260° |
| 2026-04-15 14:22 | -11.14596 | 102.16685 | 38949 ft | 467 kts | 260° |
| 2026-04-15 14:22 | -11.15657 | 102.11289 | 38949 ft | 467 kts | 260° |
| 2026-04-15 14:23 | -11.16935 | 102.04790 | 38949 ft | 467 kts | 260° |
| 2026-04-15 14:23 | -11.18201 | 101.98342 | 38949 ft | 465 kts | 260° |
| 2026-04-15 14:24 | -11.19471 | 101.91866 | 38949 ft | 465 kts | 259° |
| 2026-04-15 14:24 | -11.20732 | 101.85423 | 38946 ft | 465 kts | 260° |
| 2026-04-15 14:25 | -11.21993 | 101.78981 | 38949 ft | 465 kts | 260° |
| 2026-04-15 14:25 | -11.23258 | 101.72504 | 38944 ft | 465 kts | 260° |
| 2026-04-15 14:26 | -11.24514 | 101.66066 | 38951 ft | 464 kts | 259° |
| 2026-04-15 14:26 | -11.25769 | 101.59630 | 38943 ft | 460 kts | 259° |
| 2026-04-15 14:27 | -11.27007 | 101.53274 | 38943 ft | 459 kts | 259° |
| 2026-04-15 14:27 | -11.28243 | 101.46917 | 38943 ft | 458 kts | 259° |
| 2026-04-15 14:28 | -11.29482 | 101.40535 | 38947 ft | 459 kts | 259° |
| 2026-04-15 14:28 | -11.30717 | 101.34171 | 38945 ft | 459 kts | 259° |
| 2026-04-15 14:29 | -11.31955 | 101.27784 | 38950 ft | 459 kts | 259° |
| 2026-04-15 14:29 | -11.33182 | 101.21442 | 38947 ft | 458 kts | 259° |
| 2026-04-15 14:30 | -11.34415 | 101.15066 | 38946 ft | 457 kts | 259° |
| 2026-04-15 14:30 | -11.35647 | 101.08683 | 38950 ft | 457 kts | 259° |
| 2026-04-15 14:31 | -11.36866 | 101.02361 | 38949 ft | 457 kts | 259° |
| 2026-04-15 14:31 | -11.38093 | 100.95992 | 38946 ft | 457 kts | 259° |
| 2026-04-15 14:32 | -11.39314 | 100.89645 | 38947 ft | 458 kts | 259° |
| 2026-04-15 14:32 | -11.40539 | 100.83271 | 38945 ft | 457 kts | 259° |
| 2026-04-15 14:33 | -11.41755 | 100.76937 | 38945 ft | 457 kts | 259° |
| 2026-04-15 14:33 | -11.42976 | 100.70566 | 38944 ft | 458 kts | 259° |
| 2026-04-15 14:34 | -11.44196 | 100.64196 | 38945 ft | 457 kts | 259° |
| 2026-04-15 14:34 | -11.45409 | 100.57850 | 38946 ft | 457 kts | 259° |
| 2026-04-15 14:35 | -11.46629 | 100.51464 | 38945 ft | 459 kts | 259° |
| 2026-04-15 14:35 | -11.48086 | 100.45111 | 38943 ft | 459 kts | 256° |
| 2026-04-15 14:36 | -11.49682 | 100.38826 | 38945 ft | 459 kts | 256° |
| 2026-04-15 14:36 | -11.51278 | 100.32514 | 38947 ft | 459 kts | 256° |
| 2026-04-15 14:37 | -11.52859 | 100.26233 | 38937 ft | 459 kts | 256° |
| 2026-04-15 14:37 | -11.54447 | 100.19909 | 38937 ft | 459 kts | 256° |
| 2026-04-15 14:38 | -11.56022 | 100.13630 | 38941 ft | 460 kts | 256° |
| 2026-04-15 14:38 | -11.57607 | 100.07308 | 38937 ft | 460 kts | 256° |
| 2026-04-15 14:39 | -11.59185 | 100.01003 | 38938 ft | 460 kts | 256° |
| 2026-04-15 14:39 | -11.60770 | 99.94666 | 38938 ft | 460 kts | 256° |
| 2026-04-15 14:40 | -11.62341 | 99.88381 | 38937 ft | 459 kts | 256° |
| 2026-04-15 14:40 | -11.63924 | 99.82040 | 38936 ft | 460 kts | 256° |
| 2026-04-15 14:41 | -11.65492 | 99.75752 | 38935 ft | 459 kts | 256° |
| 2026-04-15 14:41 | -11.67064 | 99.69439 | 38934 ft | 457 kts | 256° |
| 2026-04-15 14:42 | -11.68627 | 99.63160 | 38937 ft | 457 kts | 256° |
| 2026-04-15 14:42 | -11.70198 | 99.56843 | 38935 ft | 458 kts | 256° |
| 2026-04-15 14:43 | -11.71758 | 99.50561 | 38931 ft | 458 kts | 256° |
| 2026-04-15 14:43 | -11.73314 | 99.44291 | 38933 ft | 457 kts | 256° |
| 2026-04-15 14:44 | -11.74877 | 99.37987 | 38935 ft | 455 kts | 256° |
| 2026-04-15 14:44 | -11.76420 | 99.31759 | 38935 ft | 454 kts | 256° |
| 2026-04-15 14:45 | -11.77970 | 99.25491 | 38932 ft | 454 kts | 256° |
| 2026-04-15 14:45 | -11.79511 | 99.19258 | 38934 ft | 455 kts | 256° |
| 2026-04-15 14:46 | -11.81062 | 99.12977 | 38934 ft | 455 kts | 256° |
| 2026-04-15 14:46 | -11.82600 | 99.06741 | 38929 ft | 454 kts | 256° |
| 2026-04-15 14:47 | -11.84142 | 99.00485 | 38929 ft | 453 kts | 256° |
| 2026-04-15 14:47 | -11.85672 | 98.94268 | 38924 ft | 452 kts | 256° |
| 2026-04-15 14:47 | -11.86438 | 98.91157 | 38720 ft | 447 kts | 256° |
| 2026-04-15 14:48 | -11.87193 | 98.88085 | 38155 ft | 445 kts | 256° |
| 2026-04-15 14:48 | -11.87941 | 98.85043 | 37356 ft | 448 kts | 256° |
| 2026-04-15 14:48 | -11.88705 | 98.81931 | 36487 ft | 453 kts | 256° |
| 2026-04-15 14:48 | -11.89477 | 98.78784 | 35629 ft | 458 kts | 257° |
| 2026-04-15 14:49 | -11.90257 | 98.75604 | 34702 ft | 465 kts | 257° |
| 2026-04-15 14:49 | -11.91051 | 98.72367 | 33706 ft | 473 kts | 256° |
| 2026-04-15 14:49 | -11.91850 | 98.69104 | 32578 ft | 482 kts | 257° |
| 2026-04-15 14:49 | -11.92665 | 98.65783 | 31857 ft | 480 kts | 257° |
| 2026-04-15 14:50 | -11.93477 | 98.62468 | 30945 ft | 483 kts | 257° |
| 2026-04-15 14:50 | -11.94298 | 98.59111 | 29928 ft | 489 kts | 257° |
| 2026-04-15 14:50 | -11.95127 | 98.55720 | 28826 ft | 492 kts | 257° |
| 2026-04-15 14:50 | -11.95959 | 98.52320 | 27726 ft | 495 kts | 257° |
| 2026-04-15 14:51 | -11.96796 | 98.48891 | 26638 ft | 498 kts | 257° |
| 2026-04-15 14:51 | -11.97625 | 98.45497 | 25606 ft | 499 kts | 257° |
| 2026-04-15 14:51 | -11.98467 | 98.42050 | 25017 ft | 491 kts | 257° |
| 2026-04-15 14:51 | -11.99271 | 98.38758 | 24971 ft | 470 kts | 256° |
| 2026-04-15 14:52 | -12.00066 | 98.35495 | 24940 ft | 474 kts | 257° |
| 2026-04-15 14:52 | -12.00867 | 98.32207 | 24915 ft | 479 kts | 257° |
| 2026-04-15 14:52 | -12.01662 | 98.28941 | 24889 ft | 479 kts | 257° |
| 2026-04-15 14:52 | -12.02469 | 98.25626 | 24859 ft | 479 kts | 257° |
| 2026-04-15 14:53 | -12.03276 | 98.22306 | 24827 ft | 480 kts | 257° |
| 2026-04-15 14:53 | -12.04074 | 98.19025 | 24769 ft | 479 kts | 257° |
| 2026-04-15 14:53 | -12.04876 | 98.15723 | 24704 ft | 480 kts | 257° |
| 2026-04-15 14:53 | -12.05684 | 98.12397 | 24652 ft | 480 kts | 257° |
| 2026-04-15 14:54 | -12.06487 | 98.09087 | 24586 ft | 480 kts | 257° |
| 2026-04-15 14:54 | -12.07292 | 98.05772 | 24527 ft | 480 kts | 257° |
| 2026-04-15 14:54 | -12.08097 | 98.02453 | 24468 ft | 481 kts | 257° |
| 2026-04-15 14:54 | -12.08907 | 97.99106 | 24223 ft | 485 kts | 257° |
| 2026-04-15 14:55 | -12.09714 | 97.95774 | 23385 ft | 482 kts | 257° |
| 2026-04-15 14:55 | -12.10517 | 97.92458 | 21964 ft | 489 kts | 257° |
| 2026-04-15 14:55 | -12.11338 | 97.89065 | 20820 ft | 489 kts | 257° |
| 2026-04-15 14:55 | -12.12153 | 97.85695 | 19825 ft | 485 kts | 257° |
| 2026-04-15 14:56 | -12.12946 | 97.82414 | 19054 ft | 476 kts | 257° |
| 2026-04-15 14:56 | -12.13741 | 97.79125 | 18126 ft | 471 kts | 257° |
| 2026-04-15 14:56 | -12.14523 | 97.75886 | 17077 ft | 467 kts | 257° |
| 2026-04-15 14:56 | -12.15285 | 97.72731 | 16298 ft | 456 kts | 257° |
| 2026-04-15 14:57 | -12.16039 | 97.69606 | 15314 ft | 451 kts | 257° |
| 2026-04-15 14:57 | -12.16788 | 97.66495 | 14405 ft | 446 kts | 257° |
| 2026-04-15 14:57 | -12.17526 | 97.63434 | 13521 ft | 440 kts | 257° |
| 2026-04-15 14:57 | -12.18246 | 97.60445 | 12551 ft | 434 kts | 258° |
| 2026-04-15 14:58 | -12.18965 | 97.57455 | 11670 ft | 427 kts | 258° |
| 2026-04-15 14:58 | -12.19651 | 97.54614 | 11451 ft | 392 kts | 258° |
| 2026-04-15 14:58 | -12.20278 | 97.52016 | 11319 ft | 360 kts | 258° |
| 2026-04-15 14:58 | -12.20847 | 97.49657 | 11192 ft | 333 kts | 258° |
| 2026-04-15 14:59 | -12.21382 | 97.47433 | 11060 ft | 310 kts | 258° |
| 2026-04-15 14:59 | -12.21880 | 97.45359 | 10932 ft | 290 kts | 259° |
| 2026-04-15 14:59 | -12.22348 | 97.43409 | 10705 ft | 277 kts | 259° |
| 2026-04-15 14:59 | -12.22806 | 97.41482 | 10109 ft | 286 kts | 259° |
| 2026-04-15 15:00 | -12.23281 | 97.39487 | 9595 ft | 291 kts | 259° |
| 2026-04-15 15:00 | -12.23763 | 97.37468 | 9173 ft | 291 kts | 259° |
| 2026-04-15 15:00 | -12.24245 | 97.35458 | 8810 ft | 290 kts | 259° |
| 2026-04-15 15:00 | -12.24726 | 97.33449 | 8442 ft | 290 kts | 259° |
| 2026-04-15 15:01 | -12.25199 | 97.31475 | 8077 ft | 289 kts | 259° |
| 2026-04-15 15:01 | -12.25678 | 97.29478 | 7705 ft | 289 kts | 259° |
| 2026-04-15 15:01 | -12.26155 | 97.27484 | 7334 ft | 288 kts | 259° |
| 2026-04-15 15:01 | -12.26632 | 97.25492 | 6971 ft | 288 kts | 259° |
| 2026-04-15 15:02 | -12.27108 | 97.23501 | 6599 ft | 287 kts | 259° |
| 2026-04-15 15:02 | -12.27584 | 97.21511 | 6220 ft | 287 kts | 259° |
| 2026-04-15 15:02 | -12.28052 | 97.19556 | 5901 ft | 284 kts | 259° |
| 2026-04-15 15:02 | -12.28522 | 97.17591 | 5565 ft | 283 kts | 259° |
| 2026-04-15 15:03 | -12.28988 | 97.15639 | 5198 ft | 282 kts | 259° |
| 2026-04-15 15:03 | -12.29453 | 97.13692 | 4839 ft | 281 kts | 259° |
| 2026-04-15 15:03 | -12.29917 | 97.11747 | 4464 ft | 281 kts | 259° |
| 2026-04-15 15:03 | -12.30375 | 97.09831 | 4103 ft | 280 kts | 259° |
| 2026-04-15 15:04 | -12.30835 | 97.07900 | 3750 ft | 278 kts | 259° |
| 2026-04-15 15:04 | -12.31294 | 97.05977 | 3400 ft | 277 kts | 259° |
| 2026-04-15 15:04 | -12.31751 | 97.04062 | 3036 ft | 277 kts | 259° |
| 2026-04-15 15:04 | -12.32202 | 97.02167 | 2680 ft | 276 kts | 259° |
| 2026-04-15 15:05 | -12.32657 | 97.00260 | 2328 ft | 275 kts | 259° |
| 2026-04-15 15:05 | -12.33111 | 96.98358 | 1980 ft | 273 kts | 258° |
| 2026-04-15 15:05 | -12.33561 | 96.96466 | 1705 ft | 277 kts | 258° |
| 2026-04-15 15:05 | -12.33896 | 96.94544 | 1523 ft | 268 kts | 271° |
| 2026-04-15 15:06 | -12.32500 | 96.91505 | 1264 ft | 226 kts | 327° |
| 2026-04-15 15:06 | -12.31229 | 96.90638 | 1133 ft | 214 kts | 334° |
| 2026-04-15 15:06 | -12.29988 | 96.89891 | 1045 ft | 196 kts | 334° |
| 2026-04-15 15:07 | -12.28887 | 96.89233 | 931 ft | 174 kts | 337° |
| 2026-04-15 15:07 | -12.27902 | 96.88643 | 862 ft | 152 kts | 336° |
| 2026-04-15 15:07 | -12.27040 | 96.88130 | 688 ft | 137 kts | 337° |
| 2026-04-15 15:07 | -12.26256 | 96.87659 | 503 ft | 125 kts | 336° |
| 2026-04-15 15:08 | -12.25499 | 96.87199 | 506 ft | 134 kts | 336° |
| 2026-04-15 15:08 | -12.24697 | 96.86709 | 747 ft | 132 kts | 333° |
| 2026-04-15 15:08 | -12.23907 | 96.86239 | 827 ft | 132 kts | 331° |
| 2026-04-15 15:08 | -12.23108 | 96.85749 | 783 ft | 133 kts | 335° |
| 2026-04-15 15:09 | -12.22318 | 96.85278 | 565 ft | 128 kts | 332° |
| 2026-04-15 15:09 | -12.21559 | 96.84824 | 333 ft | 127 kts | 333° |
| 2026-04-15 15:09 | -12.20790 | 96.84366 | 218 ft | 127 kts | 333° |
| 2026-04-15 15:09 | -12.20036 | 96.83912 | 40 ft | 124 kts | 332° |
| 2026-04-15 15:10 | -12.19379 | 96.83520 | 20 ft | 79 kts | 330° |
| 2026-04-15 15:10 | -12.19101 | 96.83352 | 16 ft | 37 kts | 329° |
| 2026-04-15 15:10 | -12.18872 | 96.83218 | 14 ft | 39 kts | 329° |
| 2026-04-15 15:10 | -12.18748 | 96.83097 | 13 ft | 10 kts | 265° |
| 2026-04-15 15:11 | -12.18750 | 96.83035 | 16 ft | 26 kts | 286° |
| 2026-04-15 15:11 | -12.18732 | 96.82980 | 15 ft | 0 kts | 304° |